CLT TRACON Summary / KCLT TAF
CLT TRACON Summary:
Expect VFR for the TRACON airspace today. IFR cigs should stay constrained to the west over the foothills. A developing low off the SE GA coast will keep surface winds northeast at above 8-10kts through the day. No significant flight hazards are expected in the TRACON airspace.

Updated: 9/20/2014 6:15 AM
CLT Terminal Aerodrome Forecast:

FTUS42 KGSP 201100
TAFCLT
TAF
KCLT 201135Z 2012/2112 03007KT P6SM FEW070 SCT250
     FM210700 35004KT P6SM FEW250=
CLT TRACON Area Remark:
NONE.
Convective Gate Forecast / Collaborative Convective Forecast Product / Vertical Wind Profile
Convective Gate Forecast
SIGMETS/ Southeast Radar & Satellite Loops (click on image to enlarge)

Southeast Radar Loop

 



USA.gov is the U.S. government's official web portal to all federal, state and local government web resources and services.